Time;durP1;ratioP1;P1;durP2;ratioP2;P2;SDS_P1;SDS_P2;PMS_P1;PMS_P2;Temp;Humidity;BMP_temperature;BMP_pressure;BME280_temperature;BME280_humidity;BME280_pressure;Samples;Min_cycle;Max_cycle;Signal;HPM_P1;HPM_P2
2022/07/08 00:02:08;;;;;;;14.37;2.97;;;14.70;99.90;;;;;;5013431;28;20332;-64
2022/07/08 00:04:36;;;;;;;12.63;2.97;;;14.70;99.90;;;;;;5012746;28;20224;-64
2022/07/08 00:07:03;;;;;;;12.87;2.83;;;14.60;99.90;;;;;;5014231;28;20300;-64
2022/07/08 00:09:30;;;;;;;19.13;2.67;;;14.60;99.90;;;;;;5012322;28;20266;-64
2022/07/08 00:11:57;;;;;;;11.57;2.90;;;14.60;99.90;;;;;;5012665;28;20271;-64
2022/07/08 00:14:24;;;;;;;14.17;3.37;;;14.50;99.90;;;;;;5013498;28;20220;-65
2022/07/08 00:16:53;;;;;;;11.97;2.77;;;14.40;99.90;;;;;;5012481;28;20224;-64
2022/07/08 00:19:20;;;;;;;13.97;3.37;;;14.40;99.90;;;;;;5013250;28;20208;-67
2022/07/08 00:21:50;;;;;;;7.00;2.33;;;14.30;99.90;;;;;;5012516;28;20208;-64
2022/07/08 00:24:17;;;;;;;12.43;3.00;;;14.30;99.90;;;;;;5013041;28;20203;-64
2022/07/08 00:26:45;;;;;;;12.97;3.13;;;14.30;99.90;;;;;;5020906;28;20503;-64
2022/07/08 00:29:12;;;;;;;11.87;2.90;;;14.30;99.90;;;;;;5010687;28;20629;-64
2022/07/08 00:31:39;;;;;;;11.00;2.40;;;14.20;99.90;;;;;;5013732;28;20267;-64
2022/07/08 00:34:07;;;;;;;10.40;3.23;;;14.20;99.90;;;;;;5011516;28;20297;-65
2022/07/08 00:36:35;;;;;;;17.97;2.80;;;14.10;99.90;;;;;;5011673;28;20224;-64
2022/07/08 00:39:03;;;;;;;9.73;2.23;;;14.20;99.90;;;;;;5012424;28;20212;-64
2022/07/08 00:41:30;;;;;;;20.37;3.63;;;14.10;99.90;;;;;;5013213;28;20254;-64
2022/07/08 00:43:57;;;;;;;11.40;2.47;;;14.10;99.90;;;;;;5012056;28;20200;-64
2022/07/08 00:46:24;;;;;;;12.67;2.80;;;14.00;99.90;;;;;;5011682;28;20279;-64
2022/07/08 00:48:51;;;;;;;10.43;3.47;;;14.00;99.90;;;;;;5012318;28;20197;-64
2022/07/08 00:51:20;;;;;;;8.70;2.53;;;14.00;99.90;;;;;;5011826;28;20612;-64
2022/07/08 00:53:51;;;;;;;9.40;2.40;;;14.00;99.90;;;;;;5014382;28;20274;-64
2022/07/08 00:56:20;;;;;;;11.10;2.93;;;14.00;99.90;;;;;;5025209;28;20223;-64
2022/07/08 00:58:48;;;;;;;7.93;2.70;;;14.00;99.90;;;;;;5021051;28;20208;-64
2022/07/08 01:01:16;;;;;;;8.07;1.90;;;14.00;99.90;;;;;;5013045;28;20279;-64
2022/07/08 01:03:43;;;;;;;12.73;2.70;;;14.00;99.90;;;;;;5017261;28;20606;-64
2022/07/08 01:06:10;;;;;;;9.00;2.60;;;13.90;99.90;;;;;;5021902;28;20301;-64
2022/07/08 01:08:39;;;;;;;8.13;2.40;;;13.90;99.90;;;;;;5028957;28;20211;-64
2022/07/08 01:11:07;;;;;;;13.77;2.70;;;13.90;99.90;;;;;;5012210;28;20229;-64
2022/07/08 01:13:35;;;;;;;13.43;2.93;;;13.90;99.90;;;;;;5011594;28;20266;-64
2022/07/08 01:16:02;;;;;;;10.77;2.30;;;13.80;99.90;;;;;;5010434;28;20232;-64
2022/07/08 01:18:31;;;;;;;12.10;2.53;;;13.80;99.90;;;;;;5012208;28;20205;-65
2022/07/08 01:20:59;;;;;;;19.90;3.17;;;13.80;99.90;;;;;;5011183;28;20196;-64
2022/07/08 01:23:27;;;;;;;10.30;2.57;;;13.80;99.90;;;;;;5010660;28;20205;-64
2022/07/08 01:25:55;;;;;;;13.43;2.97;;;13.70;99.90;;;;;;5011829;28;20205;-64
2022/07/08 01:28:22;;;;;;;8.97;2.47;;;13.70;99.90;;;;;;5010799;28;20283;-64
2022/07/08 01:30:49;;;;;;;13.13;2.70;;;13.60;99.90;;;;;;5011575;28;20668;-64
2022/07/08 01:33:16;;;;;;;8.47;2.30;;;13.50;99.90;;;;;;5011456;28;20287;-64
2022/07/08 01:35:43;;;;;;;13.70;2.87;;;13.50;99.90;;;;;;5011282;28;20287;-64
2022/07/08 01:38:12;;;;;;;11.10;3.27;;;13.50;99.90;;;;;;5011114;28;20557;-64
2022/07/08 01:40:39;;;;;;;9.93;2.33;;;13.30;99.90;;;;;;5010189;28;20224;-64
2022/07/08 01:43:06;;;;;;;8.80;2.27;;;13.40;99.90;;;;;;5012380;28;20250;-64
2022/07/08 01:45:34;;;;;;;11.87;2.77;;;13.40;99.90;;;;;;5009282;28;20217;-64
2022/07/08 01:48:01;;;;;;;9.10;2.50;;;13.40;99.90;;;;;;5023702;28;20668;-64
2022/07/08 01:50:28;;;;;;;11.67;3.07;;;13.30;99.90;;;;;;5028111;28;20200;-64
2022/07/08 01:52:55;;;;;;;9.13;3.23;;;13.40;99.90;;;;;;5025893;28;20204;-64
2022/07/08 01:55:24;;;;;;;10.80;3.33;;;13.40;99.90;;;;;;5011543;28;20216;-64
2022/07/08 01:57:51;;;;;;;9.97;2.60;;;13.40;99.90;;;;;;5011257;28;20196;-64
2022/07/08 02:00:18;;;;;;;14.40;2.43;;;13.30;99.90;;;;;;5008129;28;20200;-64
2022/07/08 02:02:45;;;;;;;14.50;2.60;;;13.30;99.90;;;;;;5016440;28;20200;-64
2022/07/08 02:05:13;;;;;;;9.33;2.40;;;13.30;99.90;;;;;;5010093;28;20208;-64
2022/07/08 02:07:41;;;;;;;9.37;2.37;;;13.40;99.90;;;;;;5022573;28;20239;-64
2022/07/08 02:10:08;;;;;;;11.37;2.50;;;13.40;99.90;;;;;;5011547;28;20250;-64
2022/07/08 02:12:36;;;;;;;14.10;2.70;;;13.40;99.90;;;;;;5028477;28;20208;-64
2022/07/08 02:15:05;;;;;;;11.50;2.97;;;13.50;99.90;;;;;;5030827;28;20627;-64
2022/07/08 02:17:35;;;;;;;11.73;2.87;;;13.50;99.90;;;;;;5011117;28;20208;-64
2022/07/08 02:20:04;;;;;;;13.10;2.67;;;13.50;99.90;;;;;;5009959;28;20528;-64
2022/07/08 02:22:31;;;;;;;8.67;2.43;;;13.50;99.90;;;;;;5010630;28;20204;-64
2022/07/08 02:24:57;;;;;;;11.17;3.00;;;13.50;99.90;;;;;;5017952;28;20267;-64
2022/07/08 02:27:24;;;;;;;16.10;4.07;;;13.60;99.90;;;;;;5022117;28;20562;-64
2022/07/08 02:29:53;;;;;;;9.27;2.20;;;13.50;99.90;;;;;;5016342;28;20289;-64
2022/07/08 02:32:20;;;;;;;10.93;2.83;;;13.50;99.90;;;;;;5011381;28;20239;-64
2022/07/08 02:34:47;;;;;;;11.70;2.50;;;13.50;99.90;;;;;;5009831;28;20243;-64
2022/07/08 02:37:14;;;;;;;12.73;3.40;;;13.40;99.90;;;;;;5011409;28;20204;-64
2022/07/08 02:39:41;;;;;;;12.93;3.10;;;13.40;99.90;;;;;;5010675;28;20208;-64
2022/07/08 02:42:10;;;;;;;11.27;2.87;;;13.40;99.90;;;;;;5011297;28;20208;-64
2022/07/08 02:44:37;;;;;;;9.13;2.47;;;13.30;99.90;;;;;;5009728;28;20208;-64
2022/07/08 02:47:07;;;;;;;8.70;2.30;;;13.30;99.90;;;;;;5011329;28;20750;-64
2022/07/08 02:49:34;;;;;;;10.70;2.47;;;13.20;99.90;;;;;;5009770;28;20291;-64
2022/07/08 02:52:01;;;;;;;7.70;2.17;;;13.20;99.90;;;;;;5009947;28;20659;-64
2022/07/08 02:54:28;;;;;;;11.23;2.43;;;13.20;99.90;;;;;;5009549;28;20246;-64
2022/07/08 02:56:55;;;;;;;13.57;2.63;;;13.20;99.90;;;;;;5010597;28;20224;-64
2022/07/08 02:59:22;;;;;;;9.13;2.40;;;13.20;99.90;;;;;;5009999;28;20204;-64
2022/07/08 03:01:49;;;;;;;12.83;3.37;;;13.30;99.90;;;;;;5008587;28;20208;-64
2022/07/08 03:04:17;;;;;;;11.30;2.87;;;13.20;99.90;;;;;;5010761;28;20246;-64
2022/07/08 03:06:44;;;;;;;9.67;2.03;;;13.20;99.90;;;;;;5020675;28;20641;-64
2022/07/08 03:09:11;;;;;;;13.43;3.47;;;13.20;99.90;;;;;;5015343;28;20635;-64
2022/07/08 03:11:38;;;;;;;10.37;2.80;;;13.20;99.90;;;;;;5010278;28;20200;-63
2022/07/08 03:14:05;;;;;;;9.20;2.60;;;13.20;99.90;;;;;;5008771;28;20615;-64
2022/07/08 03:16:32;;;;;;;14.43;2.80;;;13.20;99.90;;;;;;5011577;28;20260;-64
2022/07/08 03:18:59;;;;;;;8.43;2.20;;;13.20;99.90;;;;;;5013120;28;20204;-64
2022/07/08 03:21:28;;;;;;;9.93;2.10;;;13.20;99.90;;;;;;5013523;28;20243;-64
2022/07/08 03:23:55;;;;;;;10.70;2.47;;;13.20;99.90;;;;;;5020132;28;20235;-64
2022/07/08 03:26:22;;;;;;;8.90;2.30;;;13.20;99.90;;;;;;5034493;28;20250;-64
2022/07/08 03:28:49;;;;;;;11.77;2.30;;;13.20;99.90;;;;;;5015248;28;20413;-64
2022/07/08 03:31:16;;;;;;;10.97;2.63;;;13.10;99.90;;;;;;5014397;28;20243;-64
2022/07/08 03:33:43;;;;;;;10.83;2.17;;;13.20;99.90;;;;;;5012787;28;20279;-64
2022/07/08 03:36:10;;;;;;;11.30;2.53;;;13.20;99.90;;;;;;5013801;28;20705;-64
2022/07/08 03:38:39;;;;;;;11.33;2.30;;;13.20;99.90;;;;;;5014336;28;20205;-64
2022/07/08 03:41:20;;;;;;;10.27;2.20;;;13.20;99.90;;;;;;5012099;28;20196;-67
2022/07/08 03:43:47;;;;;;;10.10;2.20;;;13.20;99.90;;;;;;5013272;28;20196;-67
2022/07/08 03:46:14;;;;;;;10.13;2.40;;;13.10;99.90;;;;;;5014426;28;20722;-67
2022/07/08 03:48:41;;;;;;;11.07;3.10;;;13.20;99.90;;;;;;5013384;28;20737;-67
2022/07/08 03:51:08;;;;;;;11.63;3.17;;;13.10;99.90;;;;;;5014062;28;20290;-67
2022/07/08 03:53:36;;;;;;;13.73;2.47;;;13.30;99.90;;;;;;5012854;28;20200;-67
2022/07/08 03:56:05;;;;;;;7.13;2.27;;;13.30;99.90;;;;;;5013670;28;20232;-67
2022/07/08 03:58:32;;;;;;;11.03;2.90;;;13.30;99.90;;;;;;5014487;28;20690;-67
2022/07/08 04:01:00;;;;;;;9.87;2.10;;;13.30;99.90;;;;;;5013217;28;20287;-67
2022/07/08 04:03:27;;;;;;;10.40;2.67;;;13.40;99.90;;;;;;5009822;28;20205;-67
2022/07/08 04:05:54;;;;;;;7.87;2.37;;;13.40;99.90;;;;;;5013878;28;20552;-67
2022/07/08 04:08:21;;;;;;;13.87;2.47;;;13.50;99.90;;;;;;5006447;28;20283;-67
2022/07/08 04:10:48;;;;;;;10.00;2.60;;;13.50;99.90;;;;;;5011276;28;20555;-67
2022/07/08 04:13:16;;;;;;;7.73;2.13;;;13.50;99.90;;;;;;5017389;28;20670;-67
2022/07/08 04:15:43;;;;;;;10.97;2.50;;;13.60;99.90;;;;;;5010263;28;20224;-67
2022/07/08 04:18:10;;;;;;;9.73;2.60;;;13.70;99.90;;;;;;5017646;28;20205;-67
2022/07/08 04:20:37;;;;;;;14.20;2.70;;;13.60;99.90;;;;;;5015134;28;20655;-67
2022/07/08 04:23:04;;;;;;;8.17;2.03;;;13.70;99.90;;;;;;5011997;28;20247;-67
2022/07/08 04:25:31;;;;;;;10.77;3.17;;;13.70;99.90;;;;;;5013858;28;20204;-67
2022/07/08 04:27:58;;;;;;;8.47;2.20;;;13.70;99.90;;;;;;5009375;28;20200;-67
2022/07/08 04:30:26;;;;;;;8.07;2.10;;;13.80;99.90;;;;;;5011192;28;20208;-67
2022/07/08 04:32:53;;;;;;;5.77;2.00;;;13.90;99.90;;;;;;5011205;28;20267;-67
2022/07/08 04:35:20;;;;;;;7.13;1.80;;;13.90;99.90;;;;;;5008908;28;20208;-67
2022/07/08 04:37:48;;;;;;;18.00;7.30;;;14.00;99.90;;;;;;5012585;28;20236;-67
2022/07/08 04:40:16;;;;;;;6.37;2.33;;;14.00;99.90;;;;;;5011410;28;20240;-67
2022/07/08 04:42:43;;;;;;;8.23;2.80;;;14.00;99.90;;;;;;5017208;28;20554;-67
2022/07/08 04:45:11;;;;;;;8.57;1.97;;;14.10;99.90;;;;;;5011792;28;20236;-67
2022/07/08 04:47:41;;;;;;;12.53;3.90;;;14.10;99.90;;;;;;5010548;28;20670;-67
2022/07/08 04:50:08;;;;;;;9.73;1.90;;;14.20;99.90;;;;;;5010601;28;20201;-67
2022/07/08 04:52:35;;;;;;;7.07;2.00;;;14.20;99.90;;;;;;5010867;28;20208;-67
2022/07/08 04:55:02;;;;;;;13.10;2.47;;;14.20;99.90;;;;;;5012159;28;20200;-67
2022/07/08 04:57:32;;;;;;;6.73;1.80;;;14.40;99.90;;;;;;5011931;28;20291;-67
2022/07/08 04:59:59;;;;;;;6.30;2.27;;;14.40;99.90;;;;;;5010346;28;20671;-67
2022/07/08 05:02:27;;;;;;;9.40;1.90;;;14.40;99.90;;;;;;5016823;28;20226;-67
2022/07/08 05:04:55;;;;;;;10.90;2.50;;;14.50;99.90;;;;;;5011412;28;20255;-67
2022/07/08 05:07:22;;;;;;;9.67;2.93;;;14.50;99.90;;;;;;5008522;28;20667;-67
2022/07/08 05:09:49;;;;;;;8.27;2.67;;;14.60;99.90;;;;;;5010874;28;20200;-67
2022/07/08 05:12:16;;;;;;;9.00;2.33;;;14.60;99.90;;;;;;5010300;28;20274;-67
2022/07/08 05:14:43;;;;;;;10.90;2.30;;;14.60;99.90;;;;;;5011004;28;20197;-67
2022/07/08 05:17:10;;;;;;;7.63;2.17;;;14.60;99.90;;;;;;5010852;28;20311;-67
2022/07/08 05:19:37;;;;;;;6.30;1.93;;;14.70;99.90;;;;;;5009168;28;20259;-67
2022/07/08 05:22:05;;;;;;;8.97;1.80;;;14.70;99.90;;;;;;5014318;28;20205;-67
2022/07/08 05:24:32;;;;;;;5.80;1.60;;;14.70;99.90;;;;;;5014489;28;20647;-67
2022/07/08 05:26:59;;;;;;;7.37;2.10;;;14.80;99.90;;;;;;5018487;28;20686;-67
2022/07/08 05:29:26;;;;;;;11.20;2.30;;;14.80;99.90;;;;;;5012120;28;20257;-68
2022/07/08 05:31:54;;;;;;;9.13;1.80;;;14.80;99.90;;;;;;5009098;28;20236;-66
2022/07/08 05:34:21;;;;;;;12.30;2.60;;;14.80;99.90;;;;;;5011180;28;20208;-67
2022/07/08 05:36:48;;;;;;;7.37;1.80;;;14.80;99.90;;;;;;5009558;28;20274;-67
2022/07/08 05:39:16;;;;;;;8.53;2.20;;;14.90;99.90;;;;;;5006870;28;20251;-67
2022/07/08 05:41:43;;;;;;;15.50;2.30;;;14.80;99.90;;;;;;5012780;28;20262;-67
2022/07/08 05:44:11;;;;;;;7.40;2.13;;;14.90;99.90;;;;;;5009770;28;20259;-66
2022/07/08 05:46:38;;;;;;;8.93;2.40;;;14.90;99.90;;;;;;5011819;28;20204;-67
2022/07/08 05:49:05;;;;;;;8.23;1.77;;;14.90;99.90;;;;;;5007565;28;20201;-67
2022/07/08 05:51:32;;;;;;;6.93;1.93;;;14.80;99.90;;;;;;5011650;28;20233;-67
2022/07/08 05:53:59;;;;;;;10.20;2.80;;;15.00;99.90;;;;;;5013079;28;20251;-67
2022/07/08 05:56:27;;;;;;;9.93;2.23;;;15.00;99.90;;;;;;5011350;28;20217;-67
2022/07/08 05:58:54;;;;;;;9.03;2.50;;;15.10;99.90;;;;;;5003452;28;20697;-67
2022/07/08 06:01:21;;;;;;;7.30;2.07;;;15.10;99.90;;;;;;5014153;28;20232;-66
2022/07/08 06:03:48;;;;;;;5.63;2.00;;;15.10;99.90;;;;;;5010320;28;20709;-67
2022/07/08 06:06:15;;;;;;;7.60;1.93;;;15.10;99.90;;;;;;5010611;28;20633;-67
2022/07/08 06:08:42;;;;;;;8.23;2.00;;;15.10;99.90;;;;;;5009502;28;20236;-67
2022/07/08 06:11:09;;;;;;;6.27;1.90;;;15.10;99.90;;;;;;5010506;28;20228;-67
2022/07/08 06:13:37;;;;;;;5.23;2.13;;;15.20;99.90;;;;;;5010381;28;20258;-67
2022/07/08 06:16:05;;;;;;;8.07;2.20;;;15.30;99.90;;;;;;5017477;28;20196;-67
2022/07/08 06:18:32;;;;;;;5.77;1.63;;;15.30;99.90;;;;;;5010216;28;20204;-66
2022/07/08 06:20:59;;;;;;;8.77;2.10;;;15.30;99.90;;;;;;5010877;28;20208;-67
2022/07/08 06:23:26;;;;;;;7.63;2.40;;;15.30;99.90;;;;;;5014757;28;20283;-67
2022/07/08 06:25:53;;;;;;;7.27;1.63;;;15.30;99.90;;;;;;5009966;28;20200;-67
2022/07/08 06:28:20;;;;;;;5.07;1.60;;;15.40;99.90;;;;;;5014537;28;20243;-67
2022/07/08 06:30:48;;;;;;;7.67;1.80;;;15.40;99.90;;;;;;5008018;28;20346;-67
2022/07/08 06:33:15;;;;;;;11.30;2.60;;;15.40;99.90;;;;;;5011937;28;20627;-67
2022/07/08 06:35:42;;;;;;;11.63;2.23;;;15.40;99.90;;;;;;5008853;28;20286;-67
2022/07/08 06:38:09;;;;;;;7.63;2.20;;;15.40;99.90;;;;;;5009936;28;20315;-67
2022/07/08 06:40:36;;;;;;;7.97;1.90;;;15.50;99.90;;;;;;5011502;28;20679;-66
2022/07/08 06:43:03;;;;;;;7.13;2.00;;;15.60;99.90;;;;;;5016134;28;20204;-67
2022/07/08 06:45:31;;;;;;;9.37;3.10;;;15.70;99.90;;;;;;5015079;28;20263;-66
2022/07/08 06:48:00;;;;;;;10.27;2.30;;;15.60;99.90;;;;;;5010732;28;20207;-67
2022/07/08 06:50:27;;;;;;;6.93;1.90;;;15.70;99.90;;;;;;5012098;28;20197;-66
2022/07/08 06:52:54;;;;;;;6.50;1.63;;;15.70;99.90;;;;;;5022455;28;20211;-66
2022/07/08 06:55:22;;;;;;;8.33;2.00;;;15.70;99.90;;;;;;5014164;28;20291;-67
2022/07/08 06:57:49;;;;;;;4.73;1.50;;;15.90;99.90;;;;;;5007557;28;20595;-67
2022/07/08 07:00:16;;;;;;;7.93;1.90;;;16.00;99.90;;;;;;5011178;28;20690;-67
2022/07/08 07:02:43;;;;;;;6.90;2.23;;;16.10;99.90;;;;;;5011701;28;20637;-67
2022/07/08 07:05:13;;;;;;;8.33;1.97;;;16.20;99.90;;;;;;5013835;28;20200;-66
2022/07/08 07:07:40;;;;;;;7.47;2.27;;;16.20;99.90;;;;;;5009804;28;20208;-67
2022/07/08 07:10:07;;;;;;;9.43;2.23;;;16.30;99.90;;;;;;5012154;28;20200;-66
2022/07/08 07:12:34;;;;;;;8.30;2.03;;;16.20;99.90;;;;;;5009995;28;20208;-66
2022/07/08 07:15:01;;;;;;;9.27;1.83;;;16.50;99.90;;;;;;5007903;28;20200;-66
2022/07/08 07:17:28;;;;;;;5.00;1.77;;;16.50;99.90;;;;;;5014072;28;20279;-66
2022/07/08 07:19:56;;;;;;;8.45;2.55;;;16.50;99.90;;;;;;5011557;28;20209;-67
2022/07/08 07:22:24;;;;;;;8.25;1.88;;;16.50;99.90;;;;;;5013380;28;20243;-66
2022/07/08 07:24:51;;;;;;;10.15;1.90;;;16.40;99.90;;;;;;5014301;28;20208;-66
2022/07/08 07:27:18;;;;;;;6.20;1.77;;;16.60;99.90;;;;;;5011153;28;20204;-66
2022/07/08 07:29:45;;;;;;;5.13;1.80;;;16.60;99.90;;;;;;5012998;28;20214;-66
2022/07/08 07:32:12;;;;;;;5.93;1.65;;;16.60;99.90;;;;;;5011496;28;20267;-66
2022/07/08 07:34:39;;;;;;;7.72;1.60;;;16.50;99.90;;;;;;5019447;28;20204;-66
2022/07/08 07:37:07;;;;;;;6.07;1.70;;;16.70;99.90;;;;;;5016903;28;20226;-66
2022/07/08 07:39:36;;;;;;;4.20;1.30;;;16.80;99.90;;;;;;5004561;28;20701;-66
2022/07/08 07:42:03;;;;;;;4.65;1.52;;;16.70;96.90;;;;;;5013432;28;20205;-66
2022/07/08 07:44:30;;;;;;;7.90;1.80;;;16.60;99.10;;;;;;5015738;28;20227;-66
2022/07/08 07:46:57;;;;;;;7.43;1.73;;;16.70;98.30;;;;;;5012522;28;20243;-66
2022/07/08 07:49:24;;;;;;;8.05;1.70;;;16.90;98.30;;;;;;5014684;28;20243;-67
2022/07/08 07:51:51;;;;;;;7.40;1.80;;;16.90;96.50;;;;;;5012697;28;20200;-67
2022/07/08 07:54:18;;;;;;;7.82;1.60;;;16.90;96.30;;;;;;5012676;28;20201;-67
2022/07/08 07:56:46;;;;;;;9.68;1.65;;;17.00;97.10;;;;;;5018274;28;20251;-66
2022/07/08 07:59:13;;;;;;;9.15;2.08;;;17.20;96.70;;;;;;5014187;28;20204;-66
2022/07/08 08:01:40;;;;;;;5.93;1.60;;;17.40;96.80;;;;;;5010561;28;20251;-66
2022/07/08 08:04:07;;;;;;;5.75;1.63;;;17.40;96.60;;;;;;5010030;28;20263;-66
2022/07/08 08:06:34;;;;;;;7.72;2.00;;;17.20;95.70;;;;;;5012552;28;20291;-66
2022/07/08 08:09:01;;;;;;;9.38;1.70;;;17.10;96.50;;;;;;5023342;28;20546;-66
2022/07/08 08:11:28;;;;;;;4.88;1.83;;;17.10;96.20;;;;;;5013928;28;20243;-66
2022/07/08 08:13:56;;;;;;;8.48;1.85;;;17.10;95.70;;;;;;5012841;28;20204;-66
2022/07/08 08:16:23;;;;;;;8.68;1.60;;;17.40;96.70;;;;;;5013705;28;20243;-67
2022/07/08 08:18:50;;;;;;;10.15;1.92;;;17.60;95.30;;;;;;5008550;28;20599;-66
2022/07/08 08:21:17;;;;;;;5.18;1.90;;;17.70;95.90;;;;;;5003219;28;20543;-66
2022/07/08 08:23:44;;;;;;;9.50;1.90;;;17.40;95.60;;;;;;5009331;28;20627;-66
2022/07/08 08:26:11;;;;;;;7.97;2.05;;;17.70;90.90;;;;;;5013216;28;20679;-66
2022/07/08 08:28:38;;;;;;;4.55;1.80;;;17.90;90.60;;;;;;5012069;28;20225;-66
2022/07/08 08:31:07;;;;;;;7.63;1.77;;;17.70;92.20;;;;;;5010746;28;20215;-66
2022/07/08 08:33:33;;;;;;;5.85;1.50;;;17.80;92.00;;;;;;5014888;28;20255;-67
2022/07/08 08:36:01;;;;;;;3.40;1.13;;;17.90;92.70;;;;;;5011760;28;20254;-66
2022/07/08 08:38:28;;;;;;;4.18;1.48;;;18.20;91.80;;;;;;5014577;28;20231;-67
2022/07/08 08:40:59;;;;;;;5.13;2.03;;;18.20;90.70;;;;;;5012476;28;20292;-67
2022/07/08 08:43:26;;;;;;;7.03;1.90;;;18.30;90.70;;;;;;5012573;28;20319;-66
2022/07/08 08:45:54;;;;;;;6.50;1.50;;;18.40;91.80;;;;;;5012482;28;20216;-67
2022/07/08 08:48:25;;;;;;;7.07;1.70;;;18.30;91.50;;;;;;5013881;28;20615;-67
2022/07/08 08:50:54;;;;;;;6.80;1.60;;;18.20;91.50;;;;;;5011345;28;20205;-67
2022/07/08 08:53:25;;;;;;;8.60;1.60;;;18.20;92.00;;;;;;5014384;28;20243;-67
2022/07/08 08:55:52;;;;;;;7.45;1.50;;;18.60;82.30;;;;;;5008959;28;20215;-67
2022/07/08 08:58:20;;;;;;;6.53;1.80;;;19.00;77.70;;;;;;5014662;28;20315;-67
2022/07/08 09:00:47;;;;;;;6.28;1.67;;;19.40;81.70;;;;;;5010320;28;20259;-66
2022/07/08 09:03:14;;;;;;;6.13;1.27;;;18.90;75.90;;;;;;5013654;28;20314;-67
2022/07/08 09:05:42;;;;;;;6.32;1.60;;;18.90;78.60;;;;;;5009911;28;20239;-68
2022/07/08 09:08:09;;;;;;;6.18;1.90;;;19.40;76.70;;;;;;5015782;28;20651;-67
2022/07/08 09:10:36;;;;;;;4.68;1.67;;;19.60;72.20;;;;;;5018561;28;20209;-67
2022/07/08 09:13:06;;;;;;;6.00;1.73;;;19.60;71.00;;;;;;5013218;28;20295;-67
2022/07/08 09:15:35;;;;;;;6.68;1.83;;;19.30;72.10;;;;;;5008261;28;20278;-67
2022/07/08 09:18:03;;;;;;;6.95;2.08;;;19.80;68.50;;;;;;5013927;28;20310;-67
2022/07/08 09:20:43;;;;;;;4.95;1.80;;;20.20;66.30;;;;;;5012235;28;20196;-67
2022/07/08 09:23:13;;;;;;;5.78;1.95;;;20.30;59.90;;;;;;5013003;28;20196;-67
2022/07/08 09:25:40;;;;;;;6.72;1.60;;;20.30;62.70;;;;;;5012531;28;20207;-67
2022/07/08 09:28:07;;;;;;;8.13;1.90;;;20.20;65.70;;;;;;5010677;28;20288;-67
2022/07/08 09:30:34;;;;;;;5.32;1.90;;;19.90;65.90;;;;;;5010270;28;20236;-67
2022/07/08 09:33:03;;;;;;;5.53;2.10;;;19.80;69.90;;;;;;5010070;28;20243;-67
2022/07/08 09:35:37;;;;;;;6.10;1.83;;;20.20;68.70;;;;;;5005887;28;20627;-67
2022/07/08 09:38:07;;;;;;;6.55;1.50;;;20.70;63.00;;;;;;5012271;28;20258;-67
2022/07/08 09:40:35;;;;;;;3.75;1.63;;;21.20;64.10;;;;;;5009961;28;20682;-67
2022/07/08 09:43:03;;;;;;;6.32;2.58;;;20.70;61.90;;;;;;5016696;28;20231;-67
2022/07/08 09:45:34;;;;;;;7.60;2.20;;;21.00;60.90;;;;;;5011263;28;20213;-67
2022/07/08 09:48:05;;;;;;;4.82;1.40;;;21.20;61.90;;;;;;5010681;28;20200;-67
2022/07/08 09:50:33;;;;;;;2.50;1.25;;;21.90;59.20;;;;;;5014430;28;20719;-67
2022/07/08 09:53:00;;;;;;;6.68;1.88;;;22.20;57.40;;;;;;5010486;28;20208;-67
2022/07/08 09:55:32;;;;;;;4.75;1.52;;;21.50;54.30;;;;;;5018490;28;20204;-67
2022/07/08 09:58:00;;;;;;;4.68;1.58;;;22.00;58.40;;;;;;5008813;28;20264;-67
2022/07/08 10:00:28;;;;;;;6.07;1.50;;;21.70;54.60;;;;;;5012985;28;20685;-67
2022/07/08 10:02:56;;;;;;;6.75;2.05;;;20.90;56.90;;;;;;5010075;28;20663;-67
2022/07/08 10:05:23;;;;;;;7.57;1.73;;;21.20;58.00;;;;;;5011510;28;20724;-67
2022/07/08 10:07:50;;;;;;;6.95;2.05;;;21.20;57.40;;;;;;5007794;28;20212;-67
2022/07/08 10:10:17;;;;;;;6.28;3.03;;;20.90;58.60;;;;;;5006622;28;20246;-67
2022/07/08 10:12:47;;;;;;;5.63;1.42;;;21.20;60.30;;;;;;5009747;28;20206;-67
2022/07/08 10:15:16;;;;;;;3.50;1.33;;;20.70;56.40;;;;;;5012167;28;20267;-67
2022/07/08 10:17:45;;;;;;;7.18;1.50;;;20.50;60.00;;;;;;5007647;28;20224;-67
2022/07/08 10:20:15;;;;;;;6.72;1.83;;;20.70;60.00;;;;;;5011157;28;20200;-67
2022/07/08 10:22:45;;;;;;;7.07;1.83;;;20.70;59.40;;;;;;5010106;28;20631;-67
2022/07/08 10:25:12;;;;;;;7.97;2.45;;;21.30;63.60;;;;;;5010152;28;20254;-67
2022/07/08 10:27:39;;;;;;;5.00;1.60;;;21.30;59.40;;;;;;5010015;28;20205;-65
2022/07/08 10:30:18;;;;;;;6.43;1.92;;;21.60;59.70;;;;;;5008649;28;20283;-65
2022/07/08 10:32:47;;;;;;;6.07;1.92;;;21.00;59.90;;;;;;5009708;28;20295;-65
2022/07/08 10:35:19;;;;;;;5.47;1.80;;;21.10;63.30;;;;;;5015745;28;20196;-65
2022/07/08 10:37:50;;;;;;;2.83;1.65;;;21.10;63.20;;;;;;5008812;28;20247;-65
2022/07/08 10:40:48;;;;;;;5.75;1.92;;;20.90;59.90;;;;;;5008829;28;20635;-65
2022/07/08 10:43:22;;;;;;;7.45;2.22;;;20.60;61.90;;;;;;4989392;28;20219;-65
2022/07/08 10:46:14;;;;;;;6.32;2.13;;;21.20;62.50;;;;;;5014107;28;20223;-65
2022/07/08 10:48:49;;;;;;;7.43;2.40;;;21.10;61.70;;;;;;5001562;28;20685;-65
2022/07/08 10:51:43;;;;;;;7.60;2.13;;;20.80;67.70;;;;;;5011027;28;20282;-65
2022/07/08 10:54:24;;;;;;;4.95;2.00;;;20.80;66.30;;;;;;5013993;28;20619;-65
2022/07/08 10:56:53;;;;;;;3.95;1.45;;;20.90;67.40;;;;;;5009789;28;20204;-65
2022/07/08 10:59:21;;;;;;;3.22;1.60;;;20.90;67.10;;;;;;5001110;28;20225;-65
2022/07/08 11:01:52;;;;;;;4.78;2.63;;;20.60;65.20;;;;;;5009996;28;20231;-65
2022/07/08 11:04:28;;;;;;;3.40;1.85;;;20.90;66.00;;;;;;5011997;28;20207;-65
2022/07/08 11:07:16;;;;;;;5.60;2.05;;;21.00;65.10;;;;;;5013099;28;20239;-65
2022/07/08 11:09:46;;;;;;;5.63;1.67;;;20.80;63.80;;;;;;5008235;28;20674;-65
2022/07/08 11:12:13;;;;;;;4.85;2.53;;;20.70;65.50;;;;;;5015077;28;20196;-64
2022/07/08 11:14:43;;;;;;;7.70;2.10;;;20.60;68.20;;;;;;5007449;28;20259;-65
2022/07/08 11:17:14;;;;;;;11.18;2.58;;;20.60;66.60;;;;;;5006888;28;20651;-64
2022/07/08 11:19:42;;;;;;;8.13;1.95;;;20.70;65.40;;;;;;5009489;28;20228;-65
2022/07/08 11:22:10;;;;;;;9.38;2.20;;;20.70;66.90;;;;;;5012389;28;20205;-64
2022/07/08 11:24:37;;;;;;;4.32;1.92;;;20.30;65.00;;;;;;5008796;28;20200;-65
2022/07/08 11:27:06;;;;;;;7.60;2.10;;;20.50;69.60;;;;;;5012257;28;20214;-65
2022/07/08 11:29:34;;;;;;;11.90;2.60;;;20.20;70.80;;;;;;5011265;28;20200;-65
2022/07/08 11:32:02;;;;;;;5.60;1.70;;;20.10;71.30;;;;;;5011465;28;20203;-65
2022/07/08 11:34:29;;;;;;;5.18;1.90;;;20.00;74.60;;;;;;5015296;28;20686;-65
2022/07/08 11:36:56;;;;;;;3.75;1.80;;;20.10;75.10;;;;;;5010297;28;20258;-65
2022/07/08 11:39:24;;;;;;;4.82;1.73;;;20.10;75.60;;;;;;5011835;28;20259;-64
2022/07/08 11:41:51;;;;;;;5.85;1.70;;;20.10;75.20;;;;;;5011795;28;20247;-65
2022/07/08 11:44:21;;;;;;;3.75;1.85;;;20.20;75.50;;;;;;5013164;28;20208;-65
2022/07/08 11:46:49;;;;;;;5.53;2.67;;;20.40;73.80;;;;;;5013445;28;20555;-65
2022/07/08 11:49:17;;;;;;;4.80;2.50;;;20.30;74.80;;;;;;5024979;28;20208;-64
2022/07/08 11:51:47;;;;;;;5.95;2.10;;;20.40;74.30;;;;;;5024410;28;20275;-65
2022/07/08 11:54:14;;;;;;;5.50;2.13;;;20.70;75.60;;;;;;5034013;28;20287;-65
2022/07/08 11:56:41;;;;;;;4.72;2.30;;;20.50;75.80;;;;;;5022457;28;20291;-65
2022/07/08 11:59:09;;;;;;;5.05;1.80;;;20.50;75.80;;;;;;5012848;28;20228;-65
2022/07/08 12:01:38;;;;;;;7.90;1.90;;;20.60;77.10;;;;;;5010840;28;20212;-65
2022/07/08 12:04:06;;;;;;;3.97;1.85;;;20.60;75.20;;;;;;5012996;28;20323;-66
2022/07/08 12:06:34;;;;;;;4.03;1.95;;;20.40;75.40;;;;;;5014560;28;20205;-65
2022/07/08 12:09:09;;;;;;;5.03;1.80;;;20.30;76.80;;;;;;5013771;28;20279;-65
2022/07/08 12:11:41;;;;;;;3.95;1.75;;;20.40;77.40;;;;;;5020033;28;20642;-65
2022/07/08 12:14:09;;;;;;;3.85;1.83;;;20.30;77.40;;;;;;5015062;28;20238;-65
2022/07/08 12:16:45;;;;;;;7.18;2.30;;;20.40;77.30;;;;;;5013679;28;20232;-65
2022/07/08 12:19:29;;;;;;;4.88;1.65;;;20.30;76.70;;;;;;5013033;28;20266;-65
2022/07/08 12:21:56;;;;;;;5.53;2.58;;;20.00;80.90;;;;;;5014361;28;20232;-65
2022/07/08 12:24:25;;;;;;;4.50;2.30;;;20.20;82.10;;;;;;5013438;28;20291;-64
2022/07/08 12:26:57;;;;;;;5.72;2.75;;;20.10;82.50;;;;;;5014283;28;20262;-65
2022/07/08 12:29:25;;;;;;;7.00;2.70;;;20.10;81.20;;;;;;5012978;28;20701;-65
2022/07/08 12:31:53;;;;;;;5.50;2.30;;;20.20;81.90;;;;;;5013864;28;20654;-64
2022/07/08 12:34:22;;;;;;;8.85;2.72;;;20.30;81.70;;;;;;5012593;28;20654;-65
2022/07/08 12:36:49;;;;;;;7.03;2.55;;;20.10;85.00;;;;;;5013385;28;20319;-65
2022/07/08 12:39:18;;;;;;;7.35;2.22;;;20.20;85.00;;;;;;5013501;28;20228;-65
2022/07/08 12:41:57;;;;;;;3.85;2.30;;;20.10;84.20;;;;;;5012569;28;20259;-64
2022/07/08 12:44:36;;;;;;;5.88;2.20;;;20.20;84.20;;;;;;5012472;28;20635;-64
2022/07/08 12:47:06;;;;;;;9.07;2.75;;;20.10;85.20;;;;;;5013736;28;20227;-65
2022/07/08 12:49:35;;;;;;;4.75;2.42;;;20.00;86.90;;;;;;5018647;28;20294;-65